createdAt,value
2022-12-18T00:03:41.446Z,3.32
2022-12-18T00:19:39.208Z,2.66
2022-12-18T00:33:40.446Z,2.62
2022-12-18T00:48:40.676Z,1.74
2022-12-18T01:03:40.457Z,1.37
2022-12-18T01:18:44.945Z,0.86
2022-12-18T01:33:40.874Z,1.07
2022-12-18T01:48:40.235Z,0.76
2022-12-18T02:03:40.921Z,0.57
2022-12-18T02:18:40.096Z,0.63
2022-12-18T02:33:40.837Z,0.41
2022-12-18T02:48:40.072Z,0.59
2022-12-18T03:03:40.961Z,0.07
2022-12-18T03:18:40.406Z,0
2022-12-18T03:48:41.286Z,0.73
2022-12-18T04:03:40.239Z,0.84
2022-12-18T04:33:40.763Z,0.09
2022-12-18T04:48:40.169Z,0.05
2022-12-18T05:03:40.362Z,0.02
2022-12-18T05:18:57.696Z,0.03
2022-12-18T05:33:40.777Z,3.98
2022-12-18T05:48:39.898Z,1.09
2022-12-18T06:03:41.066Z,4.66
2022-12-18T06:18:40.402Z,1.75
2022-12-18T06:33:40.839Z,7.08
2022-12-18T06:48:39.905Z,10.12
2022-12-18T07:03:40.817Z,1.33
2022-12-18T07:18:40.686Z,3.43
2022-12-18T07:33:40.963Z,1.87
2022-12-18T07:48:40.213Z,6.07
2022-12-18T08:03:40.748Z,3.95
2022-12-18T08:18:40.494Z,6.55
2022-12-18T08:33:42.695Z,11.97
2022-12-18T08:48:46.780Z,20.98
2022-12-18T09:03:40.673Z,17.43
2022-12-18T09:33:40.021Z,19.04
2022-12-18T09:48:40.629Z,31
2022-12-18T10:03:45.286Z,23.6
2022-12-18T10:18:40.373Z,15.8
2022-12-18T10:33:40.297Z,29.68
2022-12-18T10:48:41.019Z,25.65
2022-12-18T11:03:40.399Z,23.14
2022-12-18T11:18:41.403Z,22.99
2022-12-18T11:33:49.471Z,22.71
2022-12-18T11:48:40.281Z,22.38
2022-12-18T12:03:40.495Z,20.49
2022-12-18T12:18:40.358Z,23.85
2022-12-18T12:33:40.354Z,25.71
2022-12-18T12:48:40.396Z,26.07
2022-12-18T13:03:40.203Z,28.91
2022-12-18T13:18:40.501Z,28.97
2022-12-18T13:34:01.906Z,30.52
2022-12-18T13:48:40.647Z,26.84
2022-12-18T14:03:39.950Z,24.02
2022-12-18T14:18:40.636Z,19.25
2022-12-18T14:33:41.082Z,24.78
2022-12-18T14:48:40.148Z,19.81
2022-12-18T15:03:40.999Z,21.25
2022-12-18T15:18:40.757Z,14.97
2022-12-18T15:33:40.909Z,15
2022-12-18T15:48:45.999Z,14.17
2022-12-18T16:03:40.431Z,16.97
2022-12-18T16:18:40.596Z,25.81
2022-12-18T16:33:40.809Z,17.28
2022-12-18T16:48:40.292Z,14.92
2022-12-18T17:03:40.283Z,13.28
2022-12-18T17:18:40.448Z,10.76
2022-12-18T17:33:40.401Z,14.54
2022-12-18T17:48:40.998Z,45.27
2022-12-18T18:03:41.200Z,18.01
2022-12-18T18:18:41.306Z,9.4
2022-12-18T18:33:40.292Z,6.85
2022-12-18T19:03:40.676Z,14.16
2022-12-18T19:18:40.298Z,16.04
2022-12-18T19:33:44.053Z,10.01
2022-12-18T19:48:40.948Z,8.68
2022-12-18T20:03:40.619Z,8.49
2022-12-18T20:18:40.359Z,21.43
2022-12-18T20:33:40.425Z,11.56
2022-12-18T20:48:40.569Z,4.97
2022-12-18T21:03:40.421Z,3.38
2022-12-18T21:33:40.144Z,5.48
2022-12-18T21:48:40.998Z,4.29
2022-12-18T22:03:40.160Z,3.78
2022-12-18T22:18:40.031Z,4.2
2022-12-18T22:33:39.921Z,3.52
2022-12-18T22:48:39.804Z,3.41
2022-12-18T23:03:41.591Z,4.05
2022-12-18T23:18:40.587Z,3.73
2022-12-18T23:33:40.720Z,2.58
2022-12-18T23:48:40.255Z,2.66
